Time;durP1;ratioP1;P1;durP2;ratioP2;P2;SDS_P1;SDS_P2;PMS_P1;PMS_P2;Temp;Humidity;BMP_temperature;BMP_pressure;BME280_temperature;BME280_humidity;BME280_pressure;Samples;Min_cycle;Max_cycle;Signal;HPM_P1;HPM_P2
2022/11/25 00:01:11;;;;;;;21.02;2.17;;;;;;;-142.75;100.00;77164.81;4997836;28;20299;-64
2022/11/25 00:03:38;;;;;;;13.70;2.45;;;;;;;-142.75;100.00;77156.94;4991491;28;20031;-64
2022/11/25 00:06:12;;;;;;;12.37;3.13;;;;;;;-142.75;100.00;77145.13;4996175;28;20025;-66
2022/11/25 00:08:38;;;;;;;17.25;3.20;;;;;;;-142.75;100.00;77145.13;4991989;28;20024;-64
2022/11/25 00:11:04;;;;;;;12.68;2.92;;;;;;;-142.75;100.00;77131.34;4993555;28;20024;-65
2022/11/25 00:13:30;;;;;;;17.02;3.10;;;;;;;-142.75;100.00;77133.31;4993750;28;20772;-64
2022/11/25 00:15:59;;;;;;;15.82;3.08;;;;;;;-142.75;100.00;77125.44;4994416;28;20042;-65
2022/11/25 00:18:24;;;;;;;17.33;2.88;;;;;;;-142.75;100.00;77137.25;4994716;28;20044;-64
2022/11/25 00:20:50;;;;;;;20.52;3.05;;;;;;;-142.75;100.00;77131.34;4993836;28;20017;-65
2022/11/25 00:23:15;;;;;;;14.65;2.90;;;;;;;-142.75;100.00;77141.19;4988954;28;20303;-64
2022/11/25 00:25:41;;;;;;;12.63;2.88;;;;;;;-142.75;100.00;77143.16;4997424;28;20335;-64
2022/11/25 00:28:06;;;;;;;15.88;3.55;;;;;;;-142.75;100.00;77147.09;4992686;28;20487;-64
2022/11/25 00:30:32;;;;;;;24.35;3.72;;;;;;;-142.75;100.00;77143.16;4995126;28;20316;-65
2022/11/25 00:32:57;;;;;;;5.97;2.33;;;;;;;-142.75;100.00;77143.16;4995275;28;20124;-65
2022/11/25 00:35:22;;;;;;;12.65;2.83;;;;;;;-142.75;100.00;77154.97;4989825;28;20391;-64
2022/11/25 00:37:48;;;;;;;17.77;2.50;;;;;;;-142.75;100.00;77151.03;4998148;28;20028;-64
2022/11/25 00:40:13;;;;;;;16.17;3.30;;;;;;;-142.75;100.00;77158.91;4986918;28;20493;-65
2022/11/25 00:45:23;;;;;;;11.35;3.08;;;;;;;-142.75;100.00;77164.81;4987494;28;20322;-65
2022/11/25 00:47:48;;;;;;;18.02;3.72;;;;;;;-142.75;100.00;77156.94;4995507;28;20523;-65
2022/11/25 00:50:14;;;;;;;12.48;3.58;;;;;;;-142.75;100.00;77149.06;4995506;28;20372;-65
2022/11/25 00:52:39;;;;;;;17.25;3.33;;;;;;;-142.75;100.00;77153.00;4995151;28;20391;-65
2022/11/25 00:55:05;;;;;;;13.32;3.67;;;;;;;-142.75;100.00;77151.03;4996161;28;20467;-64
2022/11/25 00:57:30;;;;;;;14.82;3.78;;;;;;;-142.75;100.00;77149.06;4995055;28;20067;-64
2022/11/25 00:59:56;;;;;;;13.20;3.67;;;;;;;-142.75;100.00;77153.00;4987125;28;20195;-64
2022/11/25 01:02:21;;;;;;;16.88;4.20;;;;;;;-142.75;100.00;77149.06;4993804;28;20357;-65
2022/11/25 01:04:47;;;;;;;15.30;3.35;;;;;;;-142.75;100.00;77154.97;5001636;28;20356;-64
2022/11/25 01:07:13;;;;;;;15.63;3.92;;;;;;;-142.75;100.00;77149.06;4987221;28;20505;-65
2022/11/25 01:09:38;;;;;;;13.27;3.95;;;;;;;-142.75;100.00;77145.13;4986231;28;20248;-64
2022/11/25 01:12:04;;;;;;;19.10;3.47;;;;;;;-142.75;100.00;77149.06;5000484;28;20352;-66
2022/11/25 01:14:30;;;;;;;;;;;;;;;-142.75;100.00;77147.09;4993196;28;20949;-65
2022/11/25 01:16:55;;;;;;;17.27;4.28;;;;;;;-142.75;100.00;77139.22;4998718;28;20091;-65
2022/11/25 01:19:23;;;;;;;13.55;3.72;;;;;;;-142.75;100.00;77131.34;4993111;28;20175;-64
2022/11/25 01:21:48;;;;;;;14.13;3.97;;;;;;;-142.75;100.00;77133.31;4991251;28;20159;-65
2022/11/25 01:24:15;;;;;;;12.55;3.97;;;;;;;-142.75;100.00;77131.34;4996517;28;20340;-65
2022/11/25 01:26:41;;;;;;;18.08;3.50;;;;;;;-142.75;100.00;77125.44;4990799;28;20157;-65
2022/11/25 01:29:16;;;;;;;13.05;3.38;;;;;;;-142.75;100.00;77127.41;4990664;28;20584;-65
2022/11/25 01:31:42;;;;;;;10.93;3.17;;;;;;;-142.75;100.00;77123.47;4996429;28;20090;-65
2022/11/25 01:34:20;;;;;;;16.05;4.00;;;;;;;-142.75;100.00;77117.56;4988214;28;20136;-65
2022/11/25 01:36:45;;;;;;;29.30;3.63;;;;;;;-142.75;100.00;77125.44;4992826;28;20025;-65
2022/11/25 01:39:19;;;;;;;13.10;3.15;;;;;;;-142.75;100.00;77125.44;4999653;28;20387;-67
2022/11/25 01:41:46;;;;;;;16.67;3.22;;;;;;;-142.75;100.00;77123.47;4993842;28;20082;-65
2022/11/25 01:44:24;;;;;;;16.55;3.30;;;;;;;-142.75;100.00;77113.63;4987513;28;20017;-66
2022/11/25 01:47:08;;;;;;;13.45;2.50;;;;;;;-142.75;100.00;77105.75;4989464;28;20131;-66
2022/11/25 01:49:47;;;;;;;16.45;2.78;;;;;;;-142.75;100.00;77109.69;4991984;28;20038;-66
2022/11/25 01:52:21;;;;;;;12.95;2.65;;;;;;;-142.75;100.00;77115.59;4996604;28;20028;-68
2022/11/25 01:54:59;;;;;;;13.13;2.33;;;;;;;-142.75;100.00;77115.59;4990899;28;20024;-65
2022/11/25 01:57:35;;;;;;;12.60;2.80;;;;;;;-142.75;100.00;77107.72;4989583;28;20060;-64
2022/11/25 02:00:02;;;;;;;13.00;2.47;;;;;;;-142.75;100.00;77111.66;4994798;28;20039;-64
2022/11/25 02:02:28;;;;;;;13.52;2.20;;;;;;;-142.75;100.00;77097.88;4995020;28;20604;-64
2022/11/25 02:04:55;;;;;;;12.43;2.63;;;;;;;-142.75;100.00;77097.88;4989315;28;20039;-65
2022/11/25 02:07:33;;;;;;;12.27;2.72;;;;;;;-142.75;100.00;77107.72;4988654;28;20036;-65
2022/11/25 02:10:02;;;;;;;13.80;2.67;;;;;;;-142.75;100.00;77113.63;4990567;28;20036;-64
2022/11/25 02:12:28;;;;;;;13.38;2.20;;;;;;;-142.75;100.00;77101.81;4992121;28;20560;-64
2022/11/25 02:14:55;;;;;;;10.25;1.85;;;;;;;-142.75;100.00;77103.78;4990468;28;20048;-64
2022/11/25 02:17:21;;;;;;;9.25;2.17;;;;;;;-142.75;100.00;77107.72;4995836;28;20045;-64
2022/11/25 02:20:07;;;;;;;;;;;;;;;-142.75;100.00;77107.72;4990720;28;20024;-64
2022/11/25 02:23:07;;;;;;;12.63;1.50;;;;;;;-142.75;100.00;77090.00;4987439;28;19960;-65
2022/11/25 02:25:38;;;;;;;14.55;2.53;;;;;;;-142.75;100.00;77107.72;4990254;28;20036;-67
2022/11/25 02:28:08;;;;;;;4.82;1.80;;;;;;;-142.75;100.00;77107.72;4997486;28;20037;-65
2022/11/25 02:30:34;;;;;;;7.28;1.80;;;;;;;-142.75;100.00;77107.72;4996619;28;20035;-64
2022/11/25 02:33:00;;;;;;;11.05;1.92;;;;;;;-142.75;100.00;77119.53;4999980;28;20091;-65
2022/11/25 02:35:34;;;;;;;13.88;1.67;;;;;;;-142.75;100.00;77121.50;4995337;28;20313;-65
2022/11/25 02:38:17;;;;;;;7.80;1.38;;;;;;;-142.75;100.00;77121.50;4995155;28;20041;-65
2022/11/25 02:40:47;;;;;;;5.78;1.63;;;;;;;-142.75;100.00;77125.44;4990780;28;20029;-65
2022/11/25 02:43:14;;;;;;;6.90;1.42;;;;;;;-142.75;100.00;77129.38;5000899;28;20095;-65
2022/11/25 02:45:53;;;;;;;9.32;1.85;;;;;;;-142.75;100.00;77123.47;5000072;28;20028;-65
2022/11/25 02:48:19;;;;;;;7.65;1.55;;;;;;;-142.75;100.00;77119.53;4994923;28;20024;-65
2022/11/25 02:50:45;;;;;;;5.50;1.10;;;;;;;-142.75;100.00;77127.41;4998083;28;20137;-65
2022/11/25 02:53:10;;;;;;;10.30;1.42;;;;;;;-142.75;100.00;77119.53;4997606;28;20330;-65
2022/11/25 02:55:36;;;;;;;9.65;2.05;;;;;;;-142.75;100.00;77123.47;4992104;28;20123;-64
2022/11/25 02:58:02;;;;;;;11.45;1.50;;;;;;;-142.75;100.00;77121.50;4989045;28;20311;-67
2022/11/25 03:00:27;;;;;;;6.65;1.33;;;;;;;-142.75;100.00;77119.53;4993281;28;20348;-67
2022/11/25 03:02:53;;;;;;;9.07;2.03;;;;;;;-142.75;100.00;77125.44;4991300;28;20310;-64
2022/11/25 03:05:20;;;;;;;7.90;1.88;;;;;;;-142.75;100.00;77125.44;5000218;28;20024;-64
2022/11/25 03:07:46;;;;;;;7.28;1.65;;;;;;;-142.75;100.00;77131.34;4999353;28;20634;-64
2022/11/25 03:10:12;;;;;;;9.82;1.63;;;;;;;-142.75;100.00;77137.25;4995039;28;20032;-65
2022/11/25 03:12:37;;;;;;;4.80;1.40;;;;;;;-142.75;100.00;77137.25;4990886;28;20330;-65
2022/11/25 03:15:03;;;;;;;10.35;2.17;;;;;;;-142.75;100.00;77147.09;4991506;28;20033;-65
2022/11/25 03:17:28;;;;;;;6.90;1.52;;;;;;;-142.75;100.00;77153.00;4994640;28;20033;-65
2022/11/25 03:19:54;;;;;;;4.93;2.13;;;;;;;-142.75;100.00;77153.00;4995574;28;20450;-65
2022/11/25 03:22:20;;;;;;;7.72;1.65;;;;;;;-142.75;100.00;77151.03;5000761;28;20186;-65
2022/11/25 03:24:45;;;;;;;6.35;1.40;;;;;;;-142.75;100.00;77153.00;4994950;28;20219;-65
2022/11/25 03:27:10;;;;;;;8.07;1.60;;;;;;;-142.75;100.00;77164.81;4990216;28;20029;-64
2022/11/25 03:29:36;;;;;;;8.48;1.70;;;;;;;-142.75;100.00;77176.63;4990335;28;20371;-65
2022/11/25 03:32:01;;;;;;;4.55;1.63;;;;;;;-142.75;100.00;77166.78;4998002;28;20379;-65
2022/11/25 03:34:27;;;;;;;8.50;1.95;;;;;;;-142.75;100.00;77178.59;5004010;28;20476;-65
2022/11/25 03:36:52;;;;;;;7.70;1.65;;;;;;;-142.75;100.00;77180.56;4992427;28;20439;-65
2022/11/25 03:39:18;;;;;;;5.95;1.30;;;;;;;-142.75;100.00;77196.31;4996818;28;20352;-65
2022/11/25 03:41:43;;;;;;;7.80;1.20;;;;;;;-142.75;100.00;77190.41;4993749;28;20337;-65
2022/11/25 03:44:09;;;;;;;5.38;1.20;;;;;;;-142.75;100.00;77202.22;4993366;28;20326;-65
2022/11/25 03:46:34;;;;;;;5.22;1.30;;;;;;;-142.75;100.00;77212.06;4985618;28;20338;-64
2022/11/25 03:49:00;;;;;;;3.10;1.02;;;;;;;-142.75;100.00;77212.06;4988802;28;20522;-65
2022/11/25 03:51:25;;;;;;;5.25;1.20;;;;;;;-142.75;100.00;77208.13;4993529;28;20244;-65
2022/11/25 03:53:51;;;;;;;5.32;0.90;;;;;;;-142.75;100.00;77212.06;4988893;28;20439;-65
2022/11/25 03:56:16;;;;;;;5.13;1.10;;;;;;;-142.75;100.00;77212.06;4993723;28;20334;-64
2022/11/25 03:58:42;;;;;;;6.57;1.27;;;;;;;-142.75;100.00;77216.00;4995641;28;20295;-64
2022/11/25 04:01:07;;;;;;;2.42;0.70;;;;;;;-142.75;100.00;77219.94;4994756;28;20345;-67
2022/11/25 04:03:33;;;;;;;8.93;1.08;;;;;;;-142.75;100.00;77217.97;4999982;28;20340;-65
2022/11/25 04:05:58;;;;;;;6.22;1.05;;;;;;;-142.75;100.00;77212.06;4992131;28;20037;-65
2022/11/25 04:08:24;;;;;;;4.10;1.15;;;;;;;-142.75;100.00;77225.84;4993398;28;20512;-67
2022/11/25 04:10:50;;;;;;;4.55;1.65;;;;;;;-142.75;100.00;77233.72;4996505;28;20391;-67
2022/11/25 04:13:15;;;;;;;5.72;1.17;;;;;;;-142.75;100.00;77235.69;4995617;28;20360;-67
2022/11/25 04:15:48;;;;;;;4.82;1.50;;;;;;;-142.75;100.00;77225.84;4997661;28;20183;-66
2022/11/25 04:18:16;;;;;;;8.60;1.50;;;;;;;-142.75;100.00;77235.69;4999125;28;20028;-67
2022/11/25 04:20:42;;;;;;;6.05;1.88;;;;;;;-142.75;100.00;77241.59;5003250;28;20024;-67
2022/11/25 04:23:08;;;;;;;5.68;1.60;;;;;;;-142.75;100.00;77243.56;4993126;28;20388;-65
2022/11/25 04:25:34;;;;;;;;;;;;;;;-142.75;100.00;77243.56;4994663;28;20020;-66
2022/11/25 04:27:59;;;;;;;7.35;1.48;;;;;;;-142.75;100.00;77259.31;4995162;28;20208;-67
2022/11/25 04:30:25;;;;;;;6.43;2.20;;;;;;;-142.75;100.00;77261.28;4996732;28;20241;-67
2022/11/25 04:32:50;;;;;;;11.45;1.88;;;;;;;-142.75;100.00;77259.31;4990886;28;20307;-68
2022/11/25 04:35:16;;;;;;;4.07;1.23;;;;;;;-142.75;100.00;77271.13;4990235;28;20307;-67
2022/11/25 04:37:42;;;;;;;3.13;1.45;;;;;;;-142.75;100.00;77267.19;4994891;28;20464;-67
2022/11/25 04:40:08;;;;;;;3.63;1.38;;;;;;;-142.75;100.00;77275.06;4990713;28;20303;-67
2022/11/25 04:42:35;;;;;;;4.82;1.58;;;;;;;-142.75;100.00;77275.06;4991312;28;20372;-67
2022/11/25 04:45:04;;;;;;;6.15;2.17;;;;;;;-142.75;100.00;77275.06;4989657;28;20098;-67
2022/11/25 04:47:30;;;;;;;5.35;1.52;;;;;;;-142.75;100.00;77280.97;4994413;28;20048;-66
2022/11/25 04:49:56;;;;;;;3.78;1.67;;;;;;;-142.75;100.00;77294.75;4993668;28;20759;-67
2022/11/25 04:52:22;;;;;;;4.90;1.75;;;;;;;-142.75;100.00;77298.69;5008582;28;20086;-67
2022/11/25 04:54:47;;;;;;;7.30;1.90;;;;;;;-142.75;100.00;77298.69;4996196;28;20021;-67
2022/11/25 04:57:14;;;;;;;4.07;1.88;;;;;;;-142.75;100.00;77302.63;4987609;28;20369;-67
2022/11/25 04:59:41;;;;;;;6.47;1.40;;;;;;;-142.75;100.00;77300.66;4987746;28;20055;-67
2022/11/25 05:02:19;;;;;;;5.00;1.55;;;;;;;-142.75;100.00;77306.56;4997663;28;20138;-67
2022/11/25 05:04:46;;;;;;;7.30;1.88;;;;;;;-142.75;100.00;77304.59;4985514;28;20099;-67
2022/11/25 05:07:13;;;;;;;5.28;1.65;;;;;;;-142.75;100.00;77298.69;5000600;28;20131;-67
2022/11/25 05:09:38;;;;;;;4.10;1.63;;;;;;;-142.75;100.00;77298.69;4997741;28;20134;-65
2022/11/25 05:12:06;;;;;;;4.13;1.48;;;;;;;-142.75;100.00;77296.72;5005422;28;20302;-66
2022/11/25 05:14:33;;;;;;;5.20;1.33;;;;;;;-142.75;100.00;77298.69;4994790;28;20056;-65
2022/11/25 05:16:58;;;;;;;5.20;2.13;;;;;;;-142.75;100.00;77302.63;4994700;28;20596;-65
2022/11/25 05:19:24;;;;;;;6.60;1.52;;;;;;;-142.75;100.00;77298.69;4995960;28;20020;-66
2022/11/25 05:21:49;;;;;;;6.60;1.38;;;;;;;-142.75;100.00;77304.59;4988780;28;20370;-65
2022/11/25 05:24:15;;;;;;;5.78;1.45;;;;;;;-142.75;100.00;77318.38;4990701;28;20298;-66
2022/11/25 05:26:40;;;;;;;4.93;1.17;;;;;;;-142.75;100.00;77306.56;5012639;22;20300;-67
2022/11/25 05:29:06;;;;;;;4.53;1.23;;;;;;;-142.75;100.00;77318.38;4967439;28;20369;-67
2022/11/25 05:31:31;;;;;;;6.40;1.60;;;;;;;-142.75;100.00;77322.31;4981734;28;20353;-67
2022/11/25 05:34:01;;;;;;;6.68;1.40;;;;;;;-142.75;100.00;77326.25;4962600;28;20382;-67
2022/11/25 05:36:26;;;;;;;7.22;1.63;;;;;;;-142.75;100.00;77330.19;4964430;28;20036;-67
2022/11/25 05:38:52;;;;;;;5.40;2.08;;;;;;;-142.75;100.00;77330.19;4978867;28;20133;-67
2022/11/25 05:41:17;;;;;;;5.45;1.33;;;;;;;-142.75;100.00;77334.13;4969346;28;20025;-67
2022/11/25 05:43:43;;;;;;;16.08;2.13;;;;;;;-142.75;100.00;77342.00;4967779;28;20323;-67
2022/11/25 05:46:09;;;;;;;10.73;1.73;;;;;;;-142.75;100.00;77345.94;4963951;28;20330;-67
2022/11/25 05:48:34;;;;;;;;;;;;;;;-142.75;100.00;77334.13;4969428;28;20052;-67
2022/11/25 05:51:03;;;;;;;7.43;1.42;;;;;;;-142.75;100.00;77351.84;4977416;28;20375;-67
2022/11/25 05:53:30;;;;;;;8.70;1.63;;;;;;;-142.75;100.00;77361.69;4969395;28;20657;-67
2022/11/25 05:56:01;;;;;;;5.68;1.33;;;;;;;-142.75;100.00;77373.50;4970248;28;20025;-68
2022/11/25 05:58:28;;;;;;;6.28;1.70;;;;;;;-142.75;100.00;77375.47;4971517;28;20055;-67
2022/11/25 06:00:53;;;;;;;8.57;1.23;;;;;;;-142.75;100.00;77375.47;4972307;28;20482;-67
2022/11/25 06:03:22;;;;;;;4.22;1.38;;;;;;;-142.75;100.00;77377.44;4981708;28;20049;-68
2022/11/25 06:05:47;;;;;;;4.28;1.35;;;;;;;-142.75;100.00;77377.44;4971470;28;20087;-67
2022/11/25 06:08:13;;;;;;;5.63;1.20;;;;;;;-142.75;100.00;77379.41;4970046;28;20460;-67
2022/11/25 06:10:39;;;;;;;9.63;1.77;;;;;;;-142.75;100.00;77389.25;4963695;28;20545;-67
2022/11/25 06:13:06;;;;;;;7.60;1.48;;;;;;;-142.75;100.00;77389.25;4972157;28;20025;-67
2022/11/25 06:15:31;;;;;;;4.57;1.20;;;;;;;-142.75;100.00;77397.13;4979625;28;20106;-67
2022/11/25 06:17:57;;;;;;;8.57;1.98;;;;;;;-142.75;100.00;77416.81;4983544;28;20473;-67
2022/11/25 06:20:22;;;;;;;4.28;1.50;;;;;;;-142.75;100.00;77416.81;4978073;28;20415;-67
2022/11/25 06:22:48;;;;;;;6.35;1.55;;;;;;;-142.75;100.00;77426.66;4968319;28;20339;-67
2022/11/25 06:25:13;;;;;;;7.13;1.33;;;;;;;-142.75;100.00;77416.81;4984911;28;20330;-67
2022/11/25 06:27:38;;;;;;;7.15;1.42;;;;;;;-142.75;100.00;77408.94;4975499;28;20335;-67
2022/11/25 06:30:05;;;;;;;5.57;1.63;;;;;;;-142.75;100.00;77418.78;4963467;28;20366;-67
2022/11/25 06:32:30;;;;;;;;;;;;;;;-142.75;100.00;77424.69;4974314;28;20025;-67
2022/11/25 06:34:55;;;;;;;6.43;1.98;;;;;;;-142.75;100.00;77426.66;4981969;28;20311;-67
2022/11/25 06:37:21;;;;;;;5.95;1.67;;;;;;;-142.75;100.00;77434.53;4985246;28;20318;-67
2022/11/25 06:39:47;;;;;;;8.38;1.63;;;;;;;-142.75;100.00;77444.38;4973312;28;20339;-67
2022/11/25 06:42:12;;;;;;;6.97;1.83;;;;;;;-142.75;100.00;77448.34;4976991;28;20327;-67
2022/11/25 06:44:38;;;;;;;4.90;1.90;;;;;;;-142.75;100.00;77452.25;4971480;28;20304;-66
2022/11/25 06:47:03;;;;;;;9.00;2.05;;;;;;;-142.75;100.00;77452.25;4974200;28;20095;-67
2022/11/25 06:49:29;;;;;;;10.43;1.75;;;;;;;-142.75;100.00;77462.13;4975354;28;20359;-67
2022/11/25 06:51:54;;;;;;;9.35;1.75;;;;;;;-142.75;100.00;77470.00;4967336;28;20431;-68
2022/11/25 06:54:20;;;;;;;5.35;1.77;;;;;;;-142.75;100.00;77475.91;4976312;28;20416;-68
2022/11/25 06:56:50;;;;;;;6.88;2.30;;;;;;;-142.75;100.00;77475.91;4966451;28;20033;-67
2022/11/25 06:59:17;;;;;;;3.83;1.55;;;;;;;-142.75;100.00;77483.78;4977421;28;20055;-67
2022/11/25 07:01:42;;;;;;;5.82;1.60;;;;;;;-142.75;100.00;77479.84;4983039;28;20095;-68
2022/11/25 07:04:08;;;;;;;7.35;1.55;;;;;;;-142.75;100.00;77487.72;4984186;28;20261;-69
2022/11/25 07:06:34;;;;;;;4.40;1.60;;;;;;;-142.75;100.00;77481.81;4971824;28;20512;-69
2022/11/25 07:09:00;;;;;;;5.18;1.75;;;;;;;-142.75;100.00;77489.69;4977986;28;20029;-69
2022/11/25 07:11:35;;;;;;;5.97;1.70;;;;;;;-142.75;100.00;77487.72;4986854;28;20032;-69
2022/11/25 07:14:04;;;;;;;8.05;1.80;;;;;;;-142.75;100.00;77501.50;4974268;28;20060;-70
2022/11/25 07:16:31;;;;;;;4.13;1.50;;;;;;;-142.75;100.00;77503.47;4974634;28;20036;-69
2022/11/25 07:19:01;;;;;;;3.37;1.17;;;;;;;-142.75;100.00;77499.53;4976791;28;20274;-69
2022/11/25 07:21:27;;;;;;;7.47;1.50;;;;;;;-142.75;100.00;77513.31;4977258;28;20122;-68
2022/11/25 07:23:52;;;;;;;8.52;1.80;;;;;;;-142.75;100.00;77507.41;4984088;28;20032;-69
2022/11/25 07:26:21;;;;;;;7.93;1.83;;;;;;;-142.75;100.00;77499.53;4979185;28;20379;-70
2022/11/25 07:28:48;;;;;;;5.93;1.55;;;;;;;-142.75;100.00;77507.41;4977281;28;20110;-70
2022/11/25 07:31:18;;;;;;;10.73;2.27;;;;;;;-142.75;100.00;77515.28;4944875;28;20029;-70
2022/11/25 07:33:44;;;;;;;5.63;1.40;;;;;;;-142.75;100.00;77523.16;4948242;28;20029;-70
2022/11/25 07:36:11;;;;;;;;;;;;;;;-142.75;100.00;77505.44;4984713;28;20029;-67
2022/11/25 07:38:37;;;;;;;4.43;1.77;;;;;;;-142.75;100.00;77501.50;4970819;28;19939;-67
2022/11/25 07:41:04;;;;;;;;;;;;;;;-142.75;100.00;77503.47;4981849;28;20539;-68
2022/11/25 07:43:29;;;;;;;10.95;2.00;;;;;;;-142.75;100.00;77489.69;4985825;28;19908;-68
2022/11/25 07:45:55;;;;;;;5.07;1.20;;;;;;;-142.75;100.00;77475.91;4973567;28;20056;-67
2022/11/25 07:48:21;;;;;;;8.00;1.50;;;;;;;-142.75;100.00;77495.59;4966497;28;20314;-68
2022/11/25 07:50:48;;;;;;;6.65;1.85;;;;;;;-142.75;100.00;77479.84;4981028;28;20060;-68
2022/11/25 07:53:14;;;;;;;5.70;1.65;;;;;;;-142.75;100.00;77471.97;4975210;28;20025;-68
2022/11/25 07:55:40;;;;;;;6.28;1.20;;;;;;;-142.75;100.00;77468.03;4992323;28;20472;-67
2022/11/25 07:58:05;;;;;;;4.50;1.45;;;;;;;-142.75;100.00;77460.13;5022539;28;20076;-68
2022/11/25 08:00:30;;;;;;;6.40;1.17;;;;;;;-142.75;100.00;77450.28;5020861;28;20756;-67
2022/11/25 08:02:56;;;;;;;6.77;1.50;;;;;;;-142.75;100.00;77434.53;5020786;28;20300;-69
2022/11/25 08:05:21;;;;;;;6.37;1.10;;;;;;;-142.75;100.00;77410.91;5020355;28;20707;-65
2022/11/25 08:07:46;;;;;;;7.63;1.33;;;;;;;-142.75;100.00;77408.94;5021477;28;20273;-68
2022/11/25 08:10:12;;;;;;;5.80;1.10;;;;;;;-142.75;100.00;77385.31;5014859;28;20029;-68
2022/11/25 08:12:37;;;;;;;3.78;1.02;;;;;;;-142.75;100.00;77377.44;5017316;28;20795;-67
2022/11/25 08:15:02;;;;;;;6.60;1.63;;;;;;;-142.75;100.00;77361.69;5020076;28;20037;-68
2022/11/25 08:17:28;;;;;;;8.48;1.35;;;;;;;-142.75;100.00;77342.00;5019138;28;20119;-67
2022/11/25 08:19:54;;;;;;;4.50;1.20;;;;;;;-142.75;100.00;77334.13;5018869;28;20412;-69
2022/11/25 08:22:19;;;;;;;9.25;1.55;;;;;;;-142.75;100.00;77308.53;5023159;28;20041;-67
2022/11/25 08:24:44;;;;;;;4.30;0.80;;;;;;;-142.75;100.00;77318.38;5015996;28;20049;-65
2022/11/25 08:27:10;;;;;;;6.22;1.10;;;;;;;-142.75;100.00;77294.75;5016173;28;20112;-70
2022/11/25 08:29:35;;;;;;;6.40;1.02;;;;;;;-142.75;100.00;77273.09;5019222;28;20601;-67
2022/11/25 08:32:00;;;;;;;5.30;0.95;;;;;;;-142.75;100.00;77275.06;5021211;28;20025;-69
2022/11/25 08:34:26;;;;;;;4.43;0.90;;;;;;;-142.75;100.00;77263.25;5033689;28;20104;-69
2022/11/25 08:36:51;;;;;;;8.00;1.35;;;;;;;-142.75;100.00;77219.94;5019371;28;20029;-69
2022/11/25 08:39:18;;;;;;;3.00;1.00;;;;;;;-142.75;100.00;77202.22;5018800;28;20029;-67
2022/11/25 08:41:44;;;;;;;3.20;0.80;;;;;;;-142.75;100.00;77196.31;5020235;28;20094;-68
2022/11/25 08:44:12;;;;;;;5.57;1.10;;;;;;;-142.75;100.00;77194.34;5020382;28;20026;-68
2022/11/25 08:46:38;;;;;;;6.47;1.27;;;;;;;-142.75;100.00;77145.13;5019440;28;20063;-69
2022/11/25 08:49:04;;;;;;;;;;;;;;;-142.75;100.00;77117.56;5018963;28;20450;-68
2022/11/25 08:51:32;;;;;;;4.28;0.85;;;;;;;-142.75;100.00;77103.78;5018965;28;19936;-68
2022/11/25 08:53:58;;;;;;;4.07;1.15;;;;;;;-142.75;100.00;77101.81;5019387;28;20063;-67
2022/11/25 08:56:25;;;;;;;8.90;1.20;;;;;;;-142.75;100.00;77125.44;5019639;28;20030;-64
2022/11/25 08:58:50;;;;;;;4.00;0.90;;;;;;;-142.75;100.00;77086.06;5019328;28;20044;-68
2022/11/25 09:01:18;;;;;;;4.72;1.23;;;;;;;-142.75;100.00;77082.13;5019838;28;20458;-67
2022/11/25 09:03:47;;;;;;;8.63;1.38;;;;;;;-142.75;100.00;77066.38;5020062;28;20025;-66
2022/11/25 09:06:13;;;;;;;6.88;1.70;;;;;;;-142.75;100.00;77078.19;5020156;28;20075;-66
2022/11/25 09:08:39;;;;;;;;;;;;;;;-142.75;100.00;77054.56;5017799;28;20021;-67
2022/11/25 09:11:05;;;;;;;7.57;1.67;;;;;;;-142.75;100.00;77030.94;5019735;28;19980;-66
2022/11/25 09:13:31;;;;;;;4.65;1.02;;;;;;;-142.75;100.00;77001.41;5018604;28;20716;-67
2022/11/25 09:15:56;;;;;;;7.00;1.25;;;;;;;-142.75;100.00;76967.94;5020184;28;20100;-65
2022/11/25 09:18:25;;;;;;;6.88;1.30;;;;;;;-142.75;100.00;76985.66;5018719;28;20075;-65
2022/11/25 09:20:52;;;;;;;8.32;1.35;;;;;;;-142.75;100.00;76983.69;5039061;28;20032;-65
2022/11/25 09:23:18;;;;;;;6.45;0.95;;;;;;;-142.75;100.00;76971.88;5018368;28;20382;-67
2022/11/25 09:25:49;;;;;;;;;;;;;;;-142.75;100.00;76964.00;5019056;28;20111;-68
2022/11/25 09:28:15;;;;;;;5.82;0.98;;;;;;;-142.75;100.00;76940.38;5030941;28;19921;-65
2022/11/25 09:30:40;;;;;;;2.95;0.95;;;;;;;-142.75;100.00;76906.91;5018084;28;20040;-65
2022/11/25 09:33:05;;;;;;;;;;;;;;;-142.75;100.00;76877.38;5019968;28;20409;-61
2022/11/25 09:35:30;;;;;;;8.63;1.20;;;;;;;-142.75;100.00;76863.59;5017870;28;19952;-66
2022/11/25 09:37:55;;;;;;;;;;;;;;;-142.75;100.00;76839.97;5024250;28;20140;-62
2022/11/25 09:40:39;;;;;;;4.60;0.82;;;;;;;-142.75;100.00;76818.31;5027983;28;20679;-63
2022/11/25 09:49:24;;;;;;;4.40;1.00;;;;;;;-142.75;100.00;76818.31;5023130;28;20124;-64
2022/11/25 09:52:04;;;;;;;3.60;1.00;;;;;;;-142.75;100.00;76778.97;5023792;28;20029;-66
2022/11/25 09:54:43;;;;;;;3.45;1.13;;;;;;;-142.75;100.00;76800.63;5023081;28;20079;-68
2022/11/25 09:57:20;;;;;;;4.43;1.25;;;;;;;-142.75;100.00;76782.91;5022712;28;20025;-66
2022/11/25 10:00:05;;;;;;;4.68;1.10;;;;;;;-142.75;100.00;76771.09;5022201;28;20022;-66
2022/11/25 10:02:41;;;;;;;23.48;1.85;;;;;;;-142.75;100.00;76802.56;5023119;28;20032;-66
2022/11/25 10:05:16;;;;;;;5.68;1.13;;;;;;;-142.75;100.00;76753.38;5031141;28;20913;-69
2022/11/25 10:07:46;;;;;;;6.15;1.38;;;;;;;-142.75;100.00;76747.47;5021199;28;20052;-66
2022/11/25 10:10:22;;;;;;;6.03;1.23;;;;;;;-142.75;100.00;76739.59;5021879;28;20021;-67
2022/11/25 10:12:50;;;;;;;5.13;1.38;;;;;;;-142.75;100.00;76704.16;5020356;28;20505;-65
2022/11/25 10:15:26;;;;;;;8.18;1.50;;;;;;;-142.75;100.00;76715.97;5022970;28;20040;-65
2022/11/25 10:17:56;;;;;;;8.35;1.40;;;;;;;-142.75;100.00;76712.03;5020178;28;20033;-69
2022/11/25 10:20:24;;;;;;;4.13;1.15;;;;;;;-142.75;100.00;76745.50;5019393;28;20124;-68
2022/11/25 10:22:54;;;;;;;13.98;1.33;;;;;;;-142.75;100.00;76692.34;5020285;28;20752;-67
2022/11/25 10:25:26;;;;;;;9.93;1.30;;;;;;;-142.75;100.00;76725.81;5032762;28;20512;-69
2022/11/25 10:28:09;;;;;;;4.32;1.08;;;;;;;-142.75;100.00;76719.91;5029818;28;20455;-66
2022/11/25 10:30:40;;;;;;;4.30;0.93;;;;;;;-142.75;100.00;76696.28;5023016;28;20384;-70
2022/11/25 10:33:15;;;;;;;10.73;1.67;;;;;;;-142.75;100.00;76664.78;5024562;28;20492;-67
2022/11/25 10:35:50;;;;;;;8.32;0.93;;;;;;;-142.75;100.00;76633.28;5022699;28;20052;-67
2022/11/25 10:38:26;;;;;;;8.60;1.17;;;;;;;-142.75;100.00;76629.34;5021826;28;20029;-67
2022/11/25 10:40:53;;;;;;;15.35;1.27;;;;;;;-142.75;100.00;76645.09;5019495;28;20514;-68
2022/11/25 10:43:19;;;;;;;8.25;1.30;;;;;;;-142.75;100.00;76664.78;5021135;28;20041;-66
2022/11/25 10:46:10;;;;;;;;;;;;;;;-142.75;100.00;76649.03;5021902;28;20060;-64
2022/11/25 10:49:00;;;;;;;39.65;3.33;;;;;;;-142.75;100.00;76633.28;5004392;28;20680;-68
2022/11/25 10:51:47;;;;;;;14.32;2.10;;;;;;;-142.75;100.00;76645.09;5021387;28;20474;-70
2022/11/25 10:54:23;;;;;;;16.38;2.38;;;;;;;-142.75;100.00;76605.72;5022044;28;20025;-67
2022/11/25 10:56:50;;;;;;;32.00;2.33;;;;;;;-142.75;100.00;76625.41;5021613;28;20052;-67
2022/11/25 10:59:24;;;;;;;10.38;2.38;;;;;;;-142.75;100.00;76580.13;5022118;28;20486;-67
2022/11/25 11:02:13;;;;;;;8.73;1.25;;;;;;;-142.75;100.00;76595.88;5021939;28;20108;-67
2022/11/25 11:05:00;;;;;;;6.60;1.17;;;;;;;-142.75;100.00;76643.13;5020588;28;20018;-69
2022/11/25 11:07:29;;;;;;;9.65;1.33;;;;;;;-142.75;100.00;76658.88;5021119;28;20033;-69
2022/11/25 11:10:16;;;;;;;6.40;1.05;;;;;;;-142.75;100.00;76603.75;5021868;28;20033;-68
2022/11/25 11:12:53;;;;;;;10.38;1.30;;;;;;;-142.75;100.00;76601.78;5021816;28;20453;-66
2022/11/25 11:15:44;;;;;;;5.38;1.40;;;;;;;-142.75;100.00;76633.28;5021398;28;20109;-66
2022/11/25 11:18:29;;;;;;;5.00;1.27;;;;;;;-142.75;100.00;76576.19;5019595;28;20025;-64
2022/11/25 11:20:59;;;;;;;2.78;0.70;;;;;;;-142.75;100.00;76601.78;5021948;28;20077;-66
2022/11/25 11:23:26;;;;;;;7.40;1.30;;;;;;;-142.75;100.00;76649.03;5041172;28;20139;-68